sensor_id;sensor_type;location;lat;lon;timestamp;P1;durP1;ratioP1;P2;durP2;ratioP2
72728;SDS011;60843;52.062;4.508;2023-08-08T00:01:25;4.32;;;1.17;;
72728;SDS011;60843;52.062;4.508;2023-08-08T00:03:50;5.47;;;1.13;;
72728;SDS011;60843;52.062;4.508;2023-08-08T00:06:16;5.63;;;1.33;;
72728;SDS011;60843;52.062;4.508;2023-08-08T00:08:41;1.98;;;1.20;;
72728;SDS011;60843;52.062;4.508;2023-08-08T00:11:07;3.17;;;0.80;;
72728;SDS011;60843;52.062;4.508;2023-08-08T00:13:32;6.88;;;1.10;;
72728;SDS011;60843;52.062;4.508;2023-08-08T00:15:58;3.17;;;1.05;;
72728;SDS011;60843;52.062;4.508;2023-08-08T00:18:24;3.35;;;1.00;;
72728;SDS011;60843;52.062;4.508;2023-08-08T00:20:49;5.93;;;1.40;;
72728;SDS011;60843;52.062;4.508;2023-08-08T00:23:15;4.15;;;1.38;;
72728;SDS011;60843;52.062;4.508;2023-08-08T00:25:41;5.78;;;1.20;;
72728;SDS011;60843;52.062;4.508;2023-08-08T00:28:07;4.75;;;1.10;;
72728;SDS011;60843;52.062;4.508;2023-08-08T00:30:32;3.53;;;0.98;;
72728;SDS011;60843;52.062;4.508;2023-08-08T00:32:58;2.63;;;0.90;;
72728;SDS011;60843;52.062;4.508;2023-08-08T00:35:24;3.85;;;1.00;;
72728;SDS011;60843;52.062;4.508;2023-08-08T00:37:50;4.35;;;0.90;;
72728;SDS011;60843;52.062;4.508;2023-08-08T00:40:16;1.92;;;0.70;;
72728;SDS011;60843;52.062;4.508;2023-08-08T00:42:41;2.08;;;0.93;;
72728;SDS011;60843;52.062;4.508;2023-08-08T00:45:07;2.20;;;0.90;;
72728;SDS011;60843;52.062;4.508;2023-08-08T00:47:33;3.25;;;0.82;;
72728;SDS011;60843;52.062;4.508;2023-08-08T00:49:59;3.80;;;1.10;;
72728;SDS011;60843;52.062;4.508;2023-08-08T00:52:26;2.35;;;1.10;;
72728;SDS011;60843;52.062;4.508;2023-08-08T00:54:52;5.25;;;1.08;;
72728;SDS011;60843;52.062;4.508;2023-08-08T00:57:18;2.33;;;0.90;;
72728;SDS011;60843;52.062;4.508;2023-08-08T00:59:44;2.08;;;1.10;;
72728;SDS011;60843;52.062;4.508;2023-08-08T01:02:09;5.22;;;1.10;;
72728;SDS011;60843;52.062;4.508;2023-08-08T01:04:36;2.78;;;1.17;;
72728;SDS011;60843;52.062;4.508;2023-08-08T01:07:06;1.85;;;1.00;;
72728;SDS011;60843;52.062;4.508;2023-08-08T01:09:37;2.85;;;0.95;;
72728;SDS011;60843;52.062;4.508;2023-08-08T01:12:06;2.15;;;0.93;;
72728;SDS011;60843;52.062;4.508;2023-08-08T01:14:33;3.00;;;1.30;;
72728;SDS011;60843;52.062;4.508;2023-08-08T01:17:00;3.53;;;0.98;;
72728;SDS011;60843;52.062;4.508;2023-08-08T01:19:30;4.47;;;1.23;;
72728;SDS011;60843;52.062;4.508;2023-08-08T01:21:57;2.50;;;0.88;;
72728;SDS011;60843;52.062;4.508;2023-08-08T01:24:30;3.63;;;0.85;;
72728;SDS011;60843;52.062;4.508;2023-08-08T01:26:59;2.83;;;1.10;;
72728;SDS011;60843;52.062;4.508;2023-08-08T01:29:25;3.38;;;0.70;;
72728;SDS011;60843;52.062;4.508;2023-08-08T01:31:52;4.90;;;0.73;;
72728;SDS011;60843;52.062;4.508;2023-08-08T01:34:19;1.80;;;0.82;;
72728;SDS011;60843;52.062;4.508;2023-08-08T01:36:49;4.75;;;0.82;;
72728;SDS011;60843;52.062;4.508;2023-08-08T01:39:17;3.80;;;0.90;;
72728;SDS011;60843;52.062;4.508;2023-08-08T01:41:43;3.30;;;1.00;;
72728;SDS011;60843;52.062;4.508;2023-08-08T01:44:12;4.03;;;0.80;;
72728;SDS011;60843;52.062;4.508;2023-08-08T01:46:39;2.08;;;0.90;;
72728;SDS011;60843;52.062;4.508;2023-08-08T01:49:04;5.43;;;1.40;;
72728;SDS011;60843;52.062;4.508;2023-08-08T01:51:30;4.85;;;1.00;;
72728;SDS011;60843;52.062;4.508;2023-08-08T01:53:55;6.30;;;0.82;;
72728;SDS011;60843;52.062;4.508;2023-08-08T01:56:21;4.50;;;1.05;;
72728;SDS011;60843;52.062;4.508;2023-08-08T01:58:46;4.18;;;0.90;;
72728;SDS011;60843;52.062;4.508;2023-08-08T02:01:12;3.53;;;0.75;;
72728;SDS011;60843;52.062;4.508;2023-08-08T02:03:38;2.17;;;0.77;;
72728;SDS011;60843;52.062;4.508;2023-08-08T02:06:03;1.77;;;0.73;;
72728;SDS011;60843;52.062;4.508;2023-08-08T02:08:29;3.58;;;0.90;;
72728;SDS011;60843;52.062;4.508;2023-08-08T02:10:54;1.73;;;0.80;;
72728;SDS011;60843;52.062;4.508;2023-08-08T02:13:23;5.55;;;0.82;;
72728;SDS011;60843;52.062;4.508;2023-08-08T02:15:51;3.72;;;0.68;;
72728;SDS011;60843;52.062;4.508;2023-08-08T02:18:18;3.00;;;1.20;;
72728;SDS011;60843;52.062;4.508;2023-08-08T02:20:43;2.58;;;0.80;;
72728;SDS011;60843;52.062;4.508;2023-08-08T02:23:09;2.67;;;0.80;;
72728;SDS011;60843;52.062;4.508;2023-08-08T02:25:34;7.43;;;0.90;;
72728;SDS011;60843;52.062;4.508;2023-08-08T02:28:00;3.45;;;1.00;;
72728;SDS011;60843;52.062;4.508;2023-08-08T02:30:26;6.47;;;1.00;;
72728;SDS011;60843;52.062;4.508;2023-08-08T02:32:51;3.77;;;1.03;;
72728;SDS011;60843;52.062;4.508;2023-08-08T02:35:17;4.38;;;0.90;;
72728;SDS011;60843;52.062;4.508;2023-08-08T02:37:42;5.95;;;0.85;;
72728;SDS011;60843;52.062;4.508;2023-08-08T02:40:08;2.45;;;0.82;;
72728;SDS011;60843;52.062;4.508;2023-08-08T02:42:36;3.35;;;0.90;;
72728;SDS011;60843;52.062;4.508;2023-08-08T02:45:02;4.85;;;0.90;;
72728;SDS011;60843;52.062;4.508;2023-08-08T02:47:28;4.30;;;1.13;;
72728;SDS011;60843;52.062;4.508;2023-08-08T02:49:54;4.15;;;0.98;;
72728;SDS011;60843;52.062;4.508;2023-08-08T02:52:20;3.55;;;0.75;;
72728;SDS011;60843;52.062;4.508;2023-08-08T02:54:46;4.28;;;1.00;;
72728;SDS011;60843;52.062;4.508;2023-08-08T02:57:11;4.97;;;0.83;;
72728;SDS011;60843;52.062;4.508;2023-08-08T02:59:37;3.05;;;0.80;;
72728;SDS011;60843;52.062;4.508;2023-08-08T03:02:02;1.95;;;0.80;;
72728;SDS011;60843;52.062;4.508;2023-08-08T03:04:28;2.30;;;0.82;;
72728;SDS011;60843;52.062;4.508;2023-08-08T03:06:54;5.55;;;1.10;;
72728;SDS011;60843;52.062;4.508;2023-08-08T03:09:19;7.40;;;0.77;;
72728;SDS011;60843;52.062;4.508;2023-08-08T03:11:45;4.82;;;1.27;;
72728;SDS011;60843;52.062;4.508;2023-08-08T03:14:11;4.65;;;0.80;;
72728;SDS011;60843;52.062;4.508;2023-08-08T03:16:37;2.67;;;0.77;;
72728;SDS011;60843;52.062;4.508;2023-08-08T03:19:02;3.80;;;1.30;;
72728;SDS011;60843;52.062;4.508;2023-08-08T03:21:27;3.45;;;0.75;;
72728;SDS011;60843;52.062;4.508;2023-08-08T03:23:53;4.80;;;1.00;;
72728;SDS011;60843;52.062;4.508;2023-08-08T03:26:19;2.80;;;0.80;;
72728;SDS011;60843;52.062;4.508;2023-08-08T03:28:44;1.57;;;0.70;;
72728;SDS011;60843;52.062;4.508;2023-08-08T03:31:10;5.45;;;0.85;;
72728;SDS011;60843;52.062;4.508;2023-08-08T03:33:35;3.63;;;0.50;;
72728;SDS011;60843;52.062;4.508;2023-08-08T03:36:01;1.40;;;0.63;;
72728;SDS011;60843;52.062;4.508;2023-08-08T03:38:26;5.45;;;1.52;;
72728;SDS011;60843;52.062;4.508;2023-08-08T03:40:52;2.55;;;0.80;;
72728;SDS011;60843;52.062;4.508;2023-08-08T03:43:17;2.97;;;0.50;;
72728;SDS011;60843;52.062;4.508;2023-08-08T03:45:44;1.77;;;0.60;;
72728;SDS011;60843;52.062;4.508;2023-08-08T03:48:10;2.00;;;0.60;;
72728;SDS011;60843;52.062;4.508;2023-08-08T03:50:36;3.28;;;0.70;;
72728;SDS011;60843;52.062;4.508;2023-08-08T03:53:02;2.67;;;0.90;;
72728;SDS011;60843;52.062;4.508;2023-08-08T03:55:28;2.15;;;0.55;;
72728;SDS011;60843;52.062;4.508;2023-08-08T03:57:53;1.95;;;0.50;;
72728;SDS011;60843;52.062;4.508;2023-08-08T04:00:22;3.53;;;0.52;;
72728;SDS011;60843;52.062;4.508;2023-08-08T04:02:47;1.45;;;0.82;;
72728;SDS011;60843;52.062;4.508;2023-08-08T04:05:13;2.30;;;0.60;;
72728;SDS011;60843;52.062;4.508;2023-08-08T04:07:38;2.85;;;0.73;;
72728;SDS011;60843;52.062;4.508;2023-08-08T04:10:04;1.42;;;0.60;;
72728;SDS011;60843;52.062;4.508;2023-08-08T04:12:30;1.50;;;0.50;;
72728;SDS011;60843;52.062;4.508;2023-08-08T04:14:58;4.05;;;0.60;;
72728;SDS011;60843;52.062;4.508;2023-08-08T04:17:23;2.35;;;0.70;;
72728;SDS011;60843;52.062;4.508;2023-08-08T04:19:49;3.67;;;0.68;;
72728;SDS011;60843;52.062;4.508;2023-08-08T04:22:16;2.47;;;0.70;;
72728;SDS011;60843;52.062;4.508;2023-08-08T04:24:42;1.77;;;0.50;;
72728;SDS011;60843;52.062;4.508;2023-08-08T04:27:07;2.72;;;0.68;;
72728;SDS011;60843;52.062;4.508;2023-08-08T04:29:33;1.35;;;0.68;;
72728;SDS011;60843;52.062;4.508;2023-08-08T04:32:01;1.55;;;0.60;;
72728;SDS011;60843;52.062;4.508;2023-08-08T04:34:30;0.88;;;0.43;;
72728;SDS011;60843;52.062;4.508;2023-08-08T04:36:55;1.50;;;0.50;;
72728;SDS011;60843;52.062;4.508;2023-08-08T04:39:20;3.33;;;0.70;;
72728;SDS011;60843;52.062;4.508;2023-08-08T04:41:46;2.50;;;0.80;;
72728;SDS011;60843;52.062;4.508;2023-08-08T04:44:15;2.08;;;0.70;;
72728;SDS011;60843;52.062;4.508;2023-08-08T04:46:40;1.83;;;0.50;;
72728;SDS011;60843;52.062;4.508;2023-08-08T04:49:06;0.90;;;0.45;;
72728;SDS011;60843;52.062;4.508;2023-08-08T04:51:32;1.80;;;0.50;;
72728;SDS011;60843;52.062;4.508;2023-08-08T04:53:57;1.93;;;0.60;;
72728;SDS011;60843;52.062;4.508;2023-08-08T04:56:23;1.37;;;0.53;;
72728;SDS011;60843;52.062;4.508;2023-08-08T04:58:48;5.60;;;0.60;;
72728;SDS011;60843;52.062;4.508;2023-08-08T05:01:14;2.47;;;0.60;;
72728;SDS011;60843;52.062;4.508;2023-08-08T05:03:42;4.20;;;0.63;;
72728;SDS011;60843;52.062;4.508;2023-08-08T05:06:08;2.42;;;0.52;;
72728;SDS011;60843;52.062;4.508;2023-08-08T05:08:33;3.67;;;1.10;;
72728;SDS011;60843;52.062;4.508;2023-08-08T05:10:59;4.80;;;0.70;;
72728;SDS011;60843;52.062;4.508;2023-08-08T05:13:24;0.77;;;0.37;;
72728;SDS011;60843;52.062;4.508;2023-08-08T05:15:49;1.23;;;0.50;;
72728;SDS011;60843;52.062;4.508;2023-08-08T05:18:15;1.27;;;0.55;;
72728;SDS011;60843;52.062;4.508;2023-08-08T05:20:40;2.03;;;0.50;;
72728;SDS011;60843;52.062;4.508;2023-08-08T05:23:06;1.50;;;0.50;;
72728;SDS011;60843;52.062;4.508;2023-08-08T05:25:31;3.20;;;0.40;;
72728;SDS011;60843;52.062;4.508;2023-08-08T05:27:56;2.43;;;0.40;;
72728;SDS011;60843;52.062;4.508;2023-08-08T05:30:22;1.17;;;0.40;;
72728;SDS011;60843;52.062;4.508;2023-08-08T05:32:47;1.00;;;0.40;;
72728;SDS011;60843;52.062;4.508;2023-08-08T05:35:13;2.10;;;0.43;;
72728;SDS011;60843;52.062;4.508;2023-08-08T05:37:38;2.08;;;0.40;;
72728;SDS011;60843;52.062;4.508;2023-08-08T05:40:04;3.10;;;0.63;;
72728;SDS011;60843;52.062;4.508;2023-08-08T05:42:31;6.45;;;0.63;;
72728;SDS011;60843;52.062;4.508;2023-08-08T05:44:56;2.22;;;0.35;;
72728;SDS011;60843;52.062;4.508;2023-08-08T05:47:22;0.45;;;0.20;;
72728;SDS011;60843;52.062;4.508;2023-08-08T05:49:47;2.40;;;0.33;;
72728;SDS011;60843;52.062;4.508;2023-08-08T05:52:13;1.70;;;0.40;;
72728;SDS011;60843;52.062;4.508;2023-08-08T05:54:38;0.65;;;0.30;;
72728;SDS011;60843;52.062;4.508;2023-08-08T05:57:03;1.73;;;0.35;;
72728;SDS011;60843;52.062;4.508;2023-08-08T05:59:29;0.52;;;0.22;;
72728;SDS011;60843;52.062;4.508;2023-08-08T06:01:55;1.20;;;0.50;;
72728;SDS011;60843;52.062;4.508;2023-08-08T06:04:20;1.38;;;0.57;;
72728;SDS011;60843;52.062;4.508;2023-08-08T06:06:46;1.80;;;0.30;;
72728;SDS011;60843;52.062;4.508;2023-08-08T06:09:14;1.73;;;0.40;;
72728;SDS011;60843;52.062;4.508;2023-08-08T06:11:39;2.35;;;0.45;;
72728;SDS011;60843;52.062;4.508;2023-08-08T06:14:05;0.47;;;0.25;;
72728;SDS011;60843;52.062;4.508;2023-08-08T06:16:30;1.83;;;0.40;;
72728;SDS011;60843;52.062;4.508;2023-08-08T06:18:56;0.65;;;0.25;;
72728;SDS011;60843;52.062;4.508;2023-08-08T06:21:21;0.73;;;0.30;;
72728;SDS011;60843;52.062;4.508;2023-08-08T06:23:46;2.83;;;0.40;;
72728;SDS011;60843;52.062;4.508;2023-08-08T06:26:12;0.60;;;0.30;;
72728;SDS011;60843;52.062;4.508;2023-08-08T06:28:38;1.77;;;0.38;;
72728;SDS011;60843;52.062;4.508;2023-08-08T06:31:03;1.07;;;0.30;;
72728;SDS011;60843;52.062;4.508;2023-08-08T06:33:29;1.17;;;0.30;;
72728;SDS011;60843;52.062;4.508;2023-08-08T06:35:55;1.23;;;0.50;;
72728;SDS011;60843;52.062;4.508;2023-08-08T06:38:21;1.52;;;0.47;;
72728;SDS011;60843;52.062;4.508;2023-08-08T06:40:46;2.38;;;0.30;;
72728;SDS011;60843;52.062;4.508;2023-08-08T06:43:12;1.53;;;0.40;;
72728;SDS011;60843;52.062;4.508;2023-08-08T06:45:38;2.80;;;0.43;;
72728;SDS011;60843;52.062;4.508;2023-08-08T06:48:03;1.90;;;0.40;;
72728;SDS011;60843;52.062;4.508;2023-08-08T06:50:29;4.07;;;0.40;;
72728;SDS011;60843;52.062;4.508;2023-08-08T06:52:54;1.23;;;0.43;;
72728;SDS011;60843;52.062;4.508;2023-08-08T06:55:20;1.90;;;0.40;;
72728;SDS011;60843;52.062;4.508;2023-08-08T06:57:45;2.70;;;0.60;;
72728;SDS011;60843;52.062;4.508;2023-08-08T07:00:11;2.05;;;0.52;;
72728;SDS011;60843;52.062;4.508;2023-08-08T07:02:37;1.92;;;0.40;;
72728;SDS011;60843;52.062;4.508;2023-08-08T07:05:03;2.25;;;0.40;;
72728;SDS011;60843;52.062;4.508;2023-08-08T07:07:29;4.25;;;0.60;;
72728;SDS011;60843;52.062;4.508;2023-08-08T07:09:56;3.95;;;0.50;;
72728;SDS011;60843;52.062;4.508;2023-08-08T07:12:21;1.15;;;0.28;;
72728;SDS011;60843;52.062;4.508;2023-08-08T07:14:47;1.67;;;0.40;;
72728;SDS011;60843;52.062;4.508;2023-08-08T07:17:12;2.30;;;0.43;;
72728;SDS011;60843;52.062;4.508;2023-08-08T07:19:37;2.40;;;0.30;;
72728;SDS011;60843;52.062;4.508;2023-08-08T07:22:03;0.70;;;0.30;;
72728;SDS011;60843;52.062;4.508;2023-08-08T07:24:28;0.82;;;0.40;;
72728;SDS011;60843;52.062;4.508;2023-08-08T07:26:58;2.28;;;0.30;;
72728;SDS011;60843;52.062;4.508;2023-08-08T07:29:24;1.92;;;0.40;;
72728;SDS011;60843;52.062;4.508;2023-08-08T07:31:51;2.10;;;0.47;;
72728;SDS011;60843;52.062;4.508;2023-08-08T07:34:17;1.63;;;0.38;;
72728;SDS011;60843;52.062;4.508;2023-08-08T07:36:43;1.10;;;0.47;;
72728;SDS011;60843;52.062;4.508;2023-08-08T07:39:08;1.15;;;0.30;;
72728;SDS011;60843;52.062;4.508;2023-08-08T07:41:34;1.17;;;0.40;;
72728;SDS011;60843;52.062;4.508;2023-08-08T07:44:00;0.80;;;0.30;;
72728;SDS011;60843;52.062;4.508;2023-08-08T07:46:26;2.38;;;0.55;;
72728;SDS011;60843;52.062;4.508;2023-08-08T07:48:52;4.45;;;0.50;;
72728;SDS011;60843;52.062;4.508;2023-08-08T07:51:18;0.93;;;0.30;;
72728;SDS011;60843;52.062;4.508;2023-08-08T07:53:43;0.88;;;0.32;;
72728;SDS011;60843;52.062;4.508;2023-08-08T07:56:09;0.45;;;0.38;;
72728;SDS011;60843;52.062;4.508;2023-08-08T07:58:35;1.67;;;0.32;;
72728;SDS011;60843;52.062;4.508;2023-08-08T08:01:00;1.33;;;0.47;;
72728;SDS011;60843;52.062;4.508;2023-08-08T08:03:26;0.68;;;0.35;;
72728;SDS011;60843;52.062;4.508;2023-08-08T08:05:52;3.75;;;0.63;;
72728;SDS011;60843;52.062;4.508;2023-08-08T08:08:18;1.92;;;0.52;;
72728;SDS011;60843;52.062;4.508;2023-08-08T08:10:44;1.10;;;0.52;;
72728;SDS011;60843;52.062;4.508;2023-08-08T08:13:11;0.75;;;0.50;;
72728;SDS011;60843;52.062;4.508;2023-08-08T08:15:37;2.63;;;0.38;;
72728;SDS011;60843;52.062;4.508;2023-08-08T08:18:03;1.65;;;0.40;;
72728;SDS011;60843;52.062;4.508;2023-08-08T08:20:29;0.55;;;0.28;;
72728;SDS011;60843;52.062;4.508;2023-08-08T08:22:54;2.25;;;0.35;;
72728;SDS011;60843;52.062;4.508;2023-08-08T08:25:20;2.67;;;0.68;;
72728;SDS011;60843;52.062;4.508;2023-08-08T08:27:45;1.75;;;0.40;;
72728;SDS011;60843;52.062;4.508;2023-08-08T08:30:12;1.92;;;0.50;;
72728;SDS011;60843;52.062;4.508;2023-08-08T08:32:39;1.52;;;0.40;;
72728;SDS011;60843;52.062;4.508;2023-08-08T08:35:05;0.90;;;0.40;;
72728;SDS011;60843;52.062;4.508;2023-08-08T08:37:32;0.50;;;0.22;;
72728;SDS011;60843;52.062;4.508;2023-08-08T08:39:58;2.00;;;0.50;;
72728;SDS011;60843;52.062;4.508;2023-08-08T08:42:24;0.93;;;0.30;;
72728;SDS011;60843;52.062;4.508;2023-08-08T08:44:51;2.35;;;0.50;;
72728;SDS011;60843;52.062;4.508;2023-08-08T08:47:20;2.65;;;0.43;;
72728;SDS011;60843;52.062;4.508;2023-08-08T08:49:46;3.05;;;0.47;;
72728;SDS011;60843;52.062;4.508;2023-08-08T08:52:12;1.63;;;0.60;;
72728;SDS011;60843;52.062;4.508;2023-08-08T08:54:38;0.60;;;0.40;;
72728;SDS011;60843;52.062;4.508;2023-08-08T08:57:04;3.65;;;0.60;;
72728;SDS011;60843;52.062;4.508;2023-08-08T08:59:30;4.50;;;0.45;;
72728;SDS011;60843;52.062;4.508;2023-08-08T09:01:56;0.68;;;0.45;;
72728;SDS011;60843;52.062;4.508;2023-08-08T09:04:22;1.02;;;0.60;;
72728;SDS011;60843;52.062;4.508;2023-08-08T09:06:48;1.92;;;0.50;;
72728;SDS011;60843;52.062;4.508;2023-08-08T09:09:14;2.85;;;0.50;;
72728;SDS011;60843;52.062;4.508;2023-08-08T09:11:42;1.05;;;0.50;;
72728;SDS011;60843;52.062;4.508;2023-08-08T09:14:17;0.95;;;0.40;;
72728;SDS011;60843;52.062;4.508;2023-08-08T09:16:47;0.77;;;0.40;;
72728;SDS011;60843;52.062;4.508;2023-08-08T09:19:14;2.35;;;0.40;;
72728;SDS011;60843;52.062;4.508;2023-08-08T09:21:40;2.35;;;0.38;;
72728;SDS011;60843;52.062;4.508;2023-08-08T09:24:05;1.27;;;0.63;;
72728;SDS011;60843;52.062;4.508;2023-08-08T09:26:32;3.53;;;0.30;;
72728;SDS011;60843;52.062;4.508;2023-08-08T09:28:58;1.70;;;0.40;;
72728;SDS011;60843;52.062;4.508;2023-08-08T09:31:25;1.60;;;0.38;;
72728;SDS011;60843;52.062;4.508;2023-08-08T09:33:50;1.58;;;0.40;;
72728;SDS011;60843;52.062;4.508;2023-08-08T09:36:16;1.88;;;0.57;;
72728;SDS011;60843;52.062;4.508;2023-08-08T09:38:44;1.30;;;0.50;;
72728;SDS011;60843;52.062;4.508;2023-08-08T09:41:10;1.20;;;0.43;;
72728;SDS011;60843;52.062;4.508;2023-08-08T09:43:36;1.90;;;0.43;;
72728;SDS011;60843;52.062;4.508;2023-08-08T09:46:02;2.13;;;0.52;;
72728;SDS011;60843;52.062;4.508;2023-08-08T09:48:31;0.75;;;0.52;;
72728;SDS011;60843;52.062;4.508;2023-08-08T09:51:00;0.77;;;0.40;;
72728;SDS011;60843;52.062;4.508;2023-08-08T09:53:27;2.60;;;0.60;;
72728;SDS011;60843;52.062;4.508;2023-08-08T10:00:46;0.47;;;0.30;;
72728;SDS011;60843;52.062;4.508;2023-08-08T10:03:16;1.08;;;0.43;;
72728;SDS011;60843;52.062;4.508;2023-08-08T10:05:46;2.40;;;0.50;;
72728;SDS011;60843;52.062;4.508;2023-08-08T10:08:11;1.27;;;0.38;;
72728;SDS011;60843;52.062;4.508;2023-08-08T10:10:40;0.60;;;0.50;;
72728;SDS011;60843;52.062;4.508;2023-08-08T10:13:06;0.30;;;0.20;;
72728;SDS011;60843;52.062;4.508;2023-08-08T10:15:32;0.40;;;0.22;;
72728;SDS011;60843;52.062;4.508;2023-08-08T10:18:02;1.38;;;0.30;;
72728;SDS011;60843;52.062;4.508;2023-08-08T10:20:30;1.13;;;0.40;;
72728;SDS011;60843;52.062;4.508;2023-08-08T10:22:57;1.30;;;0.45;;
72728;SDS011;60843;52.062;4.508;2023-08-08T10:25:27;1.30;;;0.47;;
72728;SDS011;60843;52.062;4.508;2023-08-08T10:28:07;0.60;;;0.22;;
72728;SDS011;60843;52.062;4.508;2023-08-08T10:31:16;0.40;;;0.30;;
72728;SDS011;60843;52.062;4.508;2023-08-08T10:33:28;1.05;;;0.45;;
72728;SDS011;60843;52.062;4.508;2023-08-08T10:36:04;2.53;;;0.88;;
72728;SDS011;60843;52.062;4.508;2023-08-08T10:38:45;2.70;;;0.63;;
72728;SDS011;60843;52.062;4.508;2023-08-08T10:41:22;1.58;;;0.85;;
72728;SDS011;60843;52.062;4.508;2023-08-08T10:43:55;1.52;;;0.47;;
72728;SDS011;60843;52.062;4.508;2023-08-08T10:46:32;0.88;;;0.50;;
72728;SDS011;60843;52.062;4.508;2023-08-08T10:49:00;2.10;;;0.60;;
72728;SDS011;60843;52.062;4.508;2023-08-08T10:51:36;4.22;;;0.40;;
72728;SDS011;60843;52.062;4.508;2023-08-08T10:54:06;1.00;;;0.40;;
72728;SDS011;60843;52.062;4.508;2023-08-08T10:56:34;1.63;;;0.40;;
72728;SDS011;60843;52.062;4.508;2023-08-08T10:59:00;1.42;;;0.60;;
72728;SDS011;60843;52.062;4.508;2023-08-08T11:01:40;2.58;;;0.47;;
72728;SDS011;60843;52.062;4.508;2023-08-08T11:04:06;4.60;;;0.55;;
72728;SDS011;60843;52.062;4.508;2023-08-08T11:06:32;0.85;;;0.32;;
72728;SDS011;60843;52.062;4.508;2023-08-08T11:08:58;2.47;;;0.45;;
72728;SDS011;60843;52.062;4.508;2023-08-08T11:11:26;2.08;;;0.60;;
72728;SDS011;60843;52.062;4.508;2023-08-08T11:13:52;2.70;;;0.60;;
72728;SDS011;60843;52.062;4.508;2023-08-08T11:16:18;1.13;;;0.40;;
72728;SDS011;60843;52.062;4.508;2023-08-08T11:18:45;1.73;;;0.50;;
72728;SDS011;60843;52.062;4.508;2023-08-08T11:21:10;1.48;;;0.50;;
72728;SDS011;60843;52.062;4.508;2023-08-08T11:23:36;3.28;;;0.50;;
72728;SDS011;60843;52.062;4.508;2023-08-08T11:26:04;1.45;;;0.55;;
72728;SDS011;60843;52.062;4.508;2023-08-08T11:28:33;0.73;;;0.50;;
72728;SDS011;60843;52.062;4.508;2023-08-08T11:33:28;1.35;;;0.40;;
72728;SDS011;60843;52.062;4.508;2023-08-08T11:35:54;0.57;;;0.15;;
72728;SDS011;60843;52.062;4.508;2023-08-08T11:38:21;0.57;;;0.32;;
72728;SDS011;60843;52.062;4.508;2023-08-08T11:40:46;2.33;;;0.40;;
72728;SDS011;60843;52.062;4.508;2023-08-08T11:43:11;2.13;;;0.60;;
72728;SDS011;60843;52.062;4.508;2023-08-08T11:45:38;2.13;;;0.30;;
72728;SDS011;60843;52.062;4.508;2023-08-08T11:48:07;1.23;;;0.32;;
72728;SDS011;60843;52.062;4.508;2023-08-08T11:50:34;1.58;;;0.38;;
72728;SDS011;60843;52.062;4.508;2023-08-08T11:53:02;2.10;;;0.40;;
72728;SDS011;60843;52.062;4.508;2023-08-08T11:55:28;2.47;;;0.70;;
72728;SDS011;60843;52.062;4.508;2023-08-08T11:57:54;1.08;;;0.60;;
72728;SDS011;60843;52.062;4.508;2023-08-08T12:00:27;2.08;;;0.40;;
72728;SDS011;60843;52.062;4.508;2023-08-08T12:02:55;1.38;;;0.60;;
72728;SDS011;60843;52.062;4.508;2023-08-08T12:05:20;1.85;;;0.32;;
72728;SDS011;60843;52.062;4.508;2023-08-08T12:07:48;1.98;;;0.40;;
72728;SDS011;60843;52.062;4.508;2023-08-08T12:10:15;3.17;;;0.60;;
72728;SDS011;60843;52.062;4.508;2023-08-08T12:12:43;3.15;;;0.35;;
72728;SDS011;60843;52.062;4.508;2023-08-08T12:15:09;2.40;;;0.65;;
72728;SDS011;60843;52.062;4.508;2023-08-08T12:17:39;2.63;;;0.80;;
72728;SDS011;60843;52.062;4.508;2023-08-08T12:20:06;2.55;;;0.63;;
72728;SDS011;60843;52.062;4.508;2023-08-08T12:22:32;0.80;;;0.30;;
72728;SDS011;60843;52.062;4.508;2023-08-08T12:24:58;3.55;;;0.40;;
72728;SDS011;60843;52.062;4.508;2023-08-08T12:27:23;3.30;;;0.60;;
72728;SDS011;60843;52.062;4.508;2023-08-08T12:29:49;2.80;;;0.40;;
72728;SDS011;60843;52.062;4.508;2023-08-08T12:32:15;2.25;;;0.47;;
72728;SDS011;60843;52.062;4.508;2023-08-08T12:34:43;0.70;;;0.50;;
72728;SDS011;60843;52.062;4.508;2023-08-08T12:37:08;3.20;;;0.60;;
72728;SDS011;60843;52.062;4.508;2023-08-08T12:39:35;1.00;;;0.35;;
72728;SDS011;60843;52.062;4.508;2023-08-08T12:42:00;1.67;;;0.30;;
72728;SDS011;60843;52.062;4.508;2023-08-08T12:44:25;4.03;;;0.53;;
72728;SDS011;60843;52.062;4.508;2023-08-08T12:46:51;2.05;;;0.43;;
72728;SDS011;60843;52.062;4.508;2023-08-08T12:49:16;2.10;;;0.40;;
72728;SDS011;60843;52.062;4.508;2023-08-08T12:51:42;6.50;;;0.90;;
72728;SDS011;60843;52.062;4.508;2023-08-08T12:54:07;1.05;;;0.22;;
72728;SDS011;60843;52.062;4.508;2023-08-08T12:56:32;0.70;;;0.22;;
72728;SDS011;60843;52.062;4.508;2023-08-08T12:58:58;3.05;;;0.52;;
72728;SDS011;60843;52.062;4.508;2023-08-08T13:01:23;0.75;;;0.40;;
72728;SDS011;60843;52.062;4.508;2023-08-08T13:03:52;2.95;;;0.50;;
72728;SDS011;60843;52.062;4.508;2023-08-08T13:06:17;1.25;;;0.40;;
72728;SDS011;60843;52.062;4.508;2023-08-08T13:08:43;2.47;;;0.60;;
72728;SDS011;60843;52.062;4.508;2023-08-08T13:11:08;3.30;;;0.50;;
72728;SDS011;60843;52.062;4.508;2023-08-08T13:13:33;1.53;;;0.70;;
72728;SDS011;60843;52.062;4.508;2023-08-08T13:15:59;1.95;;;0.47;;
72728;SDS011;60843;52.062;4.508;2023-08-08T13:18:24;2.08;;;0.40;;
72728;SDS011;60843;52.062;4.508;2023-08-08T13:20:50;3.15;;;0.85;;
72728;SDS011;60843;52.062;4.508;2023-08-08T13:23:15;1.27;;;0.52;;
72728;SDS011;60843;52.062;4.508;2023-08-08T13:25:41;1.92;;;0.47;;
72728;SDS011;60843;52.062;4.508;2023-08-08T13:28:06;2.20;;;0.50;;
72728;SDS011;60843;52.062;4.508;2023-08-08T13:30:32;1.23;;;0.68;;
72728;SDS011;60843;52.062;4.508;2023-08-08T13:32:59;1.65;;;0.50;;
72728;SDS011;60843;52.062;4.508;2023-08-08T13:35:25;0.70;;;0.40;;
72728;SDS011;60843;52.062;4.508;2023-08-08T13:37:50;4.53;;;0.55;;
72728;SDS011;60843;52.062;4.508;2023-08-08T13:40:17;2.85;;;0.60;;
72728;SDS011;60843;52.062;4.508;2023-08-08T13:42:46;0.82;;;0.47;;
72728;SDS011;60843;52.062;4.508;2023-08-08T13:45:19;2.00;;;0.75;;
72728;SDS011;60843;52.062;4.508;2023-08-08T13:47:46;1.80;;;0.60;;
72728;SDS011;60843;52.062;4.508;2023-08-08T13:50:15;0.70;;;0.45;;
72728;SDS011;60843;52.062;4.508;2023-08-08T13:52:44;1.70;;;0.70;;
72728;SDS011;60843;52.062;4.508;2023-08-08T13:55:13;2.00;;;0.50;;
72728;SDS011;60843;52.062;4.508;2023-08-08T13:57:39;3.20;;;0.52;;
72728;SDS011;60843;52.062;4.508;2023-08-08T14:00:05;3.45;;;0.55;;
72728;SDS011;60843;52.062;4.508;2023-08-08T14:02:31;4.30;;;0.68;;
72728;SDS011;60843;52.062;4.508;2023-08-08T14:04:58;2.63;;;0.73;;
72728;SDS011;60843;52.062;4.508;2023-08-08T14:07:24;2.05;;;0.68;;
72728;SDS011;60843;52.062;4.508;2023-08-08T14:09:51;2.65;;;0.82;;
72728;SDS011;60843;52.062;4.508;2023-08-08T14:12:17;2.75;;;0.63;;
72728;SDS011;60843;52.062;4.508;2023-08-08T14:14:43;3.00;;;0.70;;
72728;SDS011;60843;52.062;4.508;2023-08-08T14:17:09;1.00;;;0.50;;
72728;SDS011;60843;52.062;4.508;2023-08-08T14:19:34;3.05;;;0.82;;
72728;SDS011;60843;52.062;4.508;2023-08-08T14:22:03;2.22;;;0.55;;
72728;SDS011;60843;52.062;4.508;2023-08-08T14:24:29;3.85;;;0.60;;
72728;SDS011;60843;52.062;4.508;2023-08-08T14:26:55;3.33;;;0.85;;
72728;SDS011;60843;52.062;4.508;2023-08-08T14:29:20;3.13;;;0.70;;
72728;SDS011;60843;52.062;4.508;2023-08-08T14:31:46;1.63;;;0.60;;
72728;SDS011;60843;52.062;4.508;2023-08-08T14:34:12;2.58;;;0.73;;
72728;SDS011;60843;52.062;4.508;2023-08-08T14:36:39;2.22;;;0.55;;
72728;SDS011;60843;52.062;4.508;2023-08-08T14:39:05;2.97;;;0.90;;
72728;SDS011;60843;52.062;4.508;2023-08-08T14:41:30;2.75;;;0.50;;
72728;SDS011;60843;52.062;4.508;2023-08-08T14:43:56;2.15;;;0.73;;
72728;SDS011;60843;52.062;4.508;2023-08-08T14:46:22;0.97;;;0.50;;
72728;SDS011;60843;52.062;4.508;2023-08-08T14:48:47;2.33;;;0.80;;
72728;SDS011;60843;52.062;4.508;2023-08-08T14:51:15;4.40;;;0.60;;